Time;durP1;ratioP1;P1;durP2;ratioP2;P2;SDS_P1;SDS_P2;PMS_P1;PMS_P2;Temp;Humidity;BMP_temperature;BMP_pressure;BME280_temperature;BME280_humidity;BME280_pressure;Samples;Min_cycle;Max_cycle;Signal;HPM_P1;HPM_P2
2022/08/28 00:01:48;;;;;;;3.15;0.90;;;12.20;99.90;;;;;;4996996;28;20052;-79
2022/08/28 00:04:14;;;;;;;2.22;1.10;;;12.10;99.90;;;;;;5013046;28;20046;-79
2022/08/28 00:06:40;;;;;;;3.13;1.10;;;12.10;99.90;;;;;;4996500;28;20042;-79
2022/08/28 00:09:06;;;;;;;1.67;0.98;;;12.20;99.90;;;;;;5011668;28;20046;-80
2022/08/28 00:11:36;;;;;;;3.25;1.33;;;12.10;99.90;;;;;;5013082;28;20065;-80
2022/08/28 00:14:07;;;;;;;3.90;1.17;;;12.10;99.90;;;;;;5012834;28;20538;-80
2022/08/28 00:16:37;;;;;;;3.88;1.13;;;12.00;99.90;;;;;;5009496;28;20120;-80
2022/08/28 00:19:03;;;;;;;2.72;1.38;;;12.00;99.90;;;;;;5011810;28;20046;-80
2022/08/28 00:21:32;;;;;;;2.78;1.20;;;12.00;99.90;;;;;;4996298;28;20072;-80
2022/08/28 00:23:58;;;;;;;1.52;1.10;;;12.00;99.90;;;;;;4996623;28;20045;-81
2022/08/28 00:29:07;;;;;;;3.28;1.05;;;12.00;99.90;;;;;;4995108;28;20403;-81
2022/08/28 00:31:37;;;;;;;2.10;1.17;;;12.00;99.90;;;;;;5012669;28;20129;-81
2022/08/28 00:34:03;;;;;;;1.92;1.30;;;12.00;99.90;;;;;;4996470;28;20046;-81
2022/08/28 00:36:29;;;;;;;2.03;1.20;;;12.00;99.90;;;;;;5012252;28;20512;-81
2022/08/28 00:38:55;;;;;;;2.40;0.88;;;12.10;99.90;;;;;;4996180;28;20056;-81
2022/08/28 00:41:21;;;;;;;1.73;0.80;;;12.10;99.90;;;;;;5012056;28;20060;-81
2022/08/28 00:43:48;;;;;;;1.33;0.80;;;12.10;99.90;;;;;;5012106;28;20496;-81
2022/08/28 00:46:18;;;;;;;3.40;1.20;;;12.10;99.90;;;;;;4995897;28;20046;-82
2022/08/28 00:48:45;;;;;;;4.15;1.50;;;12.10;99.90;;;;;;5011822;28;20080;-81
2022/08/28 00:53:57;;;;;;;4.22;1.33;;;12.20;99.90;;;;;;5012227;28;20403;-81
2022/08/28 00:56:24;;;;;;;3.40;1.52;;;12.00;99.90;;;;;;5012295;28;20045;-81
2022/08/28 00:58:51;;;;;;;2.28;1.27;;;12.00;99.90;;;;;;5012775;28;20057;-81
2022/08/28 01:01:17;;;;;;;2.13;1.10;;;12.00;99.90;;;;;;5011477;28;20108;-81
2022/08/28 01:03:44;;;;;;;2.35;0.95;;;12.10;99.90;;;;;;4980054;28;20042;-81
2022/08/28 01:06:13;;;;;;;3.20;1.35;;;12.10;99.90;;;;;;5028515;28;20130;-81
2022/08/28 01:08:41;;;;;;;3.67;1.08;;;12.10;99.90;;;;;;4980014;28;20064;-81
2022/08/28 01:11:08;;;;;;;1.77;1.15;;;12.10;99.90;;;;;;5010718;28;20033;-81
2022/08/28 01:13:38;;;;;;;3.63;1.50;;;12.10;99.90;;;;;;4995791;28;20042;-80
2022/08/28 01:16:06;;;;;;;2.10;1.27;;;12.10;99.90;;;;;;4995651;28;20080;-80
2022/08/28 01:18:33;;;;;;;3.97;1.63;;;12.00;99.90;;;;;;5011460;28;20476;-80
2022/08/28 01:21:21;;;;;;;2.67;1.00;;;12.00;99.90;;;;;;5011683;28;20042;-80
2022/08/28 01:24:00;;;;;;;3.72;1.48;;;12.00;99.90;;;;;;5023277;28;20129;-80
2022/08/28 01:26:28;;;;;;;3.40;1.52;;;11.90;99.90;;;;;;5011912;28;20121;-80
2022/08/28 01:28:57;;;;;;;1.15;0.70;;;11.80;99.90;;;;;;4994674;28;20118;-80
2022/08/28 01:31:24;;;;;;;2.58;1.38;;;11.80;99.90;;;;;;5011900;28;20042;-81
2022/08/28 01:33:50;;;;;;;2.00;1.05;;;11.70;99.90;;;;;;5011034;28;20033;-81
2022/08/28 01:36:17;;;;;;;1.83;0.98;;;11.70;99.90;;;;;;4995457;28;20053;-81
2022/08/28 01:38:47;;;;;;;2.65;1.10;;;11.70;99.90;;;;;;5011863;28;20073;-81
2022/08/28 01:41:14;;;;;;;2.08;1.13;;;11.60;99.90;;;;;;5012257;28;20120;-81
2022/08/28 01:43:41;;;;;;;2.67;0.98;;;11.70;99.90;;;;;;5010936;28;20045;-81
2022/08/28 01:46:08;;;;;;;2.75;1.10;;;11.60;99.90;;;;;;4995515;28;20057;-81
2022/08/28 01:48:39;;;;;;;3.05;1.17;;;11.60;99.90;;;;;;5011029;28;20080;-80
2022/08/28 01:51:05;;;;;;;2.10;1.33;;;11.60;99.90;;;;;;5011353;28;20049;-80
2022/08/28 01:53:32;;;;;;;1.63;1.00;;;11.60;99.90;;;;;;5011204;28;20041;-80
2022/08/28 01:56:00;;;;;;;1.30;0.82;;;11.50;99.90;;;;;;4978889;28;20050;-80
2022/08/28 01:58:27;;;;;;;4.03;1.20;;;11.60;99.90;;;;;;5007525;28;20042;-80
2022/08/28 02:00:53;;;;;;;3.55;1.40;;;11.60;99.90;;;;;;5011212;28;20446;-79
2022/08/28 02:03:20;;;;;;;1.60;0.95;;;11.50;99.90;;;;;;5010537;28;20128;-80
2022/08/28 02:05:46;;;;;;;2.30;1.10;;;11.60;99.90;;;;;;4977673;28;20181;-79
2022/08/28 02:08:13;;;;;;;4.50;1.50;;;11.60;99.90;;;;;;5015340;28;20445;-79
2022/08/28 02:10:39;;;;;;;2.17;1.30;;;11.60;99.90;;;;;;5014583;28;20084;-79
2022/08/28 02:13:06;;;;;;;1.92;1.00;;;11.60;99.90;;;;;;5011736;28;20445;-79
2022/08/28 02:15:34;;;;;;;1.85;1.00;;;12.10;99.90;;;;;;4998198;28;20492;-79
2022/08/28 02:17:59;;;;;;;3.17;1.20;;;11.60;99.90;;;;;;5015238;28;20041;-79
2022/08/28 02:20:27;;;;;;;2.20;1.20;;;11.60;99.90;;;;;;5014889;28;20594;-81
2022/08/28 02:22:53;;;;;;;1.77;0.98;;;11.60;99.90;;;;;;4998671;28;20037;-81
2022/08/28 02:25:19;;;;;;;2.25;1.02;;;11.50;99.90;;;;;;5014775;28;20052;-81
2022/08/28 02:27:45;;;;;;;2.88;1.35;;;11.50;99.90;;;;;;5011781;28;20038;-81
2022/08/28 02:30:13;;;;;;;2.80;1.08;;;11.50;99.90;;;;;;5014875;28;20042;-81
2022/08/28 02:32:39;;;;;;;4.70;1.42;;;11.40;99.90;;;;;;5015121;28;20117;-81
2022/08/28 02:35:06;;;;;;;3.97;1.50;;;11.30;99.90;;;;;;5014831;28;20540;-81
2022/08/28 02:37:32;;;;;;;3.10;1.00;;;11.30;99.90;;;;;;5014991;28;20064;-82
2022/08/28 02:39:58;;;;;;;1.88;1.10;;;11.30;99.90;;;;;;4998504;28;20046;-81
2022/08/28 02:42:25;;;;;;;1.55;0.70;;;11.20;99.90;;;;;;5014648;28;20041;-81
2022/08/28 02:44:51;;;;;;;2.00;1.20;;;11.20;99.90;;;;;;5011539;28;20042;-82
2022/08/28 02:47:17;;;;;;;1.95;1.40;;;11.20;99.90;;;;;;5012346;28;20038;-81
2022/08/28 02:49:43;;;;;;;3.33;1.65;;;11.10;99.90;;;;;;5014725;28;20067;-81
2022/08/28 02:52:09;;;;;;;2.80;1.13;;;11.20;99.90;;;;;;5014443;28;20523;-81
2022/08/28 02:54:39;;;;;;;2.08;0.93;;;11.20;99.90;;;;;;4996183;28;20077;-79
2022/08/28 02:57:07;;;;;;;4.40;1.70;;;11.30;99.90;;;;;;5013734;28;20050;-79
2022/08/28 02:59:34;;;;;;;0.85;0.73;;;11.20;99.90;;;;;;4998690;28;20088;-79
2022/08/28 03:02:02;;;;;;;1.40;0.90;;;11.10;99.90;;;;;;5014014;28;20042;-79
2022/08/28 03:04:30;;;;;;;2.63;1.30;;;11.10;99.90;;;;;;4994053;28;20748;-79
2022/08/28 03:06:56;;;;;;;1.80;1.00;;;11.10;99.90;;;;;;5013993;28;20047;-79
2022/08/28 03:09:22;;;;;;;3.60;0.95;;;11.10;99.90;;;;;;5013889;28;20049;-79
2022/08/28 03:11:48;;;;;;;3.15;1.23;;;11.10;99.90;;;;;;4997405;28;20403;-80
2022/08/28 03:14:14;;;;;;;2.42;1.17;;;11.00;99.90;;;;;;5029867;28;20412;-80
2022/08/28 03:16:39;;;;;;;2.45;1.30;;;11.00;99.90;;;;;;5013738;28;20128;-80
2022/08/28 03:19:05;;;;;;;1.77;1.00;;;10.90;99.90;;;;;;5013135;28;20401;-80
2022/08/28 03:21:31;;;;;;;4.00;1.08;;;10.90;99.90;;;;;;5013736;28;20056;-80
2022/08/28 03:23:57;;;;;;;1.10;0.75;;;10.90;99.90;;;;;;5013231;28;20068;-80
2022/08/28 03:26:23;;;;;;;1.58;0.88;;;10.90;99.90;;;;;;5013113;28;20042;-80
2022/08/28 03:28:52;;;;;;;4.05;1.20;;;10.90;99.90;;;;;;5012331;28;20447;-80
2022/08/28 03:31:24;;;;;;;1.02;0.60;;;10.90;99.90;;;;;;5007101;28;20038;-80
2022/08/28 03:33:51;;;;;;;2.95;1.02;;;10.80;99.90;;;;;;5012639;28;20040;-80
2022/08/28 03:36:21;;;;;;;1.25;0.88;;;10.90;99.90;;;;;;5008836;28;20062;-80
2022/08/28 03:38:48;;;;;;;2.63;1.33;;;10.80;99.90;;;;;;5013548;28;20454;-80
2022/08/28 03:41:18;;;;;;;2.92;1.05;;;10.90;99.90;;;;;;5014053;28;20412;-80
2022/08/28 03:43:44;;;;;;;3.15;1.02;;;10.80;99.90;;;;;;5013585;28;20112;-81
2022/08/28 03:46:16;;;;;;;1.27;0.80;;;10.80;99.90;;;;;;5009614;28;20050;-81
2022/08/28 03:48:42;;;;;;;1.88;0.93;;;10.80;99.90;;;;;;5013622;28;20038;-81
2022/08/28 03:51:21;;;;;;;2.13;1.13;;;10.80;99.90;;;;;;5006978;28;20503;-81
2022/08/28 03:53:47;;;;;;;3.55;1.40;;;10.70;99.90;;;;;;4992387;28;20042;-81
2022/08/28 03:56:21;;;;;;;1.60;1.02;;;10.80;99.90;;;;;;5010514;28;20034;-81
2022/08/28 03:58:50;;;;;;;2.42;1.17;;;10.80;99.90;;;;;;5013397;28;20612;-81
2022/08/28 04:01:16;;;;;;;1.88;1.00;;;10.80;99.90;;;;;;5013544;28;20073;-81
2022/08/28 04:03:43;;;;;;;1.95;0.85;;;10.80;99.90;;;;;;4996725;28;20046;-81
2022/08/28 04:06:09;;;;;;;2.15;0.90;;;10.90;99.90;;;;;;5013656;28;20345;-82
2022/08/28 04:08:35;;;;;;;2.13;0.90;;;11.00;99.90;;;;;;4996556;28;20042;-81
2022/08/28 04:11:01;;;;;;;1.45;0.90;;;11.00;99.90;;;;;;5008457;28;20485;-81
2022/08/28 04:13:27;;;;;;;1.33;0.70;;;11.10;99.90;;;;;;5012842;28;20044;-81
2022/08/28 04:16:09;;;;;;;1.23;0.82;;;11.10;99.90;;;;;;5012643;28;20045;-81
2022/08/28 04:18:37;;;;;;;1.70;1.00;;;11.10;99.90;;;;;;5013421;28;20042;-82
2022/08/28 04:21:12;;;;;;;3.63;0.95;;;11.10;99.90;;;;;;4996684;28;20104;-81
2022/08/28 04:23:42;;;;;;;1.17;0.75;;;11.00;99.90;;;;;;5012997;28;20088;-81
2022/08/28 04:26:10;;;;;;;2.83;1.02;;;11.00;99.90;;;;;;5011977;28;20129;-81
2022/08/28 04:28:36;;;;;;;2.60;1.08;;;11.00;99.90;;;;;;5011696;28;20396;-81
2022/08/28 04:31:02;;;;;;;1.65;0.88;;;11.00;99.90;;;;;;4996323;28;20046;-81
2022/08/28 04:33:28;;;;;;;3.08;1.30;;;11.00;99.90;;;;;;5012437;28;20080;-81
2022/08/28 04:35:54;;;;;;;1.60;0.88;;;10.90;99.90;;;;;;5012181;28;20107;-80
2022/08/28 04:38:21;;;;;;;2.28;0.90;;;10.90;99.90;;;;;;5012836;28;20507;-80
2022/08/28 04:40:46;;;;;;;1.58;0.98;;;10.80;99.90;;;;;;4996360;28;20052;-80
2022/08/28 04:43:12;;;;;;;1.80;0.93;;;10.80;99.90;;;;;;5011834;28;20491;-80
2022/08/28 04:45:40;;;;;;;2.33;1.17;;;10.80;99.90;;;;;;4995236;28;20038;-80
2022/08/28 04:48:06;;;;;;;1.73;0.77;;;10.70;99.90;;;;;;5011854;28;20072;-80
2022/08/28 04:50:32;;;;;;;2.15;1.00;;;10.80;99.90;;;;;;5012407;28;20104;-80
2022/08/28 04:52:58;;;;;;;1.58;0.75;;;10.80;99.90;;;;;;4995085;28;20045;-80
2022/08/28 04:55:24;;;;;;;1.77;1.00;;;11.00;99.90;;;;;;5007949;28;20096;-80
2022/08/28 04:57:50;;;;;;;1.25;0.93;;;10.80;99.90;;;;;;5011292;28;20126;-81
2022/08/28 05:00:16;;;;;;;1.90;0.93;;;10.90;99.90;;;;;;5012094;28;20120;-80
2022/08/28 05:02:42;;;;;;;1.67;1.10;;;10.80;99.90;;;;;;5011791;28;20165;-80
2022/08/28 05:05:08;;;;;;;1.58;1.02;;;10.80;99.90;;;;;;5011965;28;20448;-80
2022/08/28 05:07:34;;;;;;;2.20;1.10;;;10.90;99.90;;;;;;5011181;28;20057;-79
2022/08/28 05:09:59;;;;;;;1.45;0.95;;;10.90;99.90;;;;;;4995810;28;20037;-79
2022/08/28 05:12:25;;;;;;;2.70;1.10;;;11.00;99.90;;;;;;5011023;28;20046;-79
2022/08/28 05:14:51;;;;;;;2.10;0.82;;;11.00;99.90;;;;;;4995617;28;20044;-79
2022/08/28 05:17:17;;;;;;;7.25;1.65;;;11.00;99.90;;;;;;5010072;28;20042;-79
2022/08/28 05:19:43;;;;;;;1.77;0.80;;;11.10;99.90;;;;;;5009761;28;20050;-79
2022/08/28 05:22:09;;;;;;;1.77;1.02;;;11.20;99.90;;;;;;5012431;28;20050;-79
2022/08/28 05:24:39;;;;;;;2.38;1.27;;;11.30;99.90;;;;;;5011722;28;20077;-81
2022/08/28 05:27:05;;;;;;;2.88;1.08;;;11.40;99.90;;;;;;4994875;28;20081;-81
2022/08/28 05:29:31;;;;;;;1.75;0.70;;;11.40;99.90;;;;;;5011767;28;20121;-82
2022/08/28 05:31:57;;;;;;;1.65;0.85;;;11.60;99.90;;;;;;5012419;28;20450;-82
2022/08/28 05:34:22;;;;;;;3.08;0.80;;;11.70;99.90;;;;;;5012111;28;20357;-81
2022/08/28 05:36:48;;;;;;;2.67;0.85;;;11.80;99.90;;;;;;4995356;28;20050;-81
2022/08/28 05:39:15;;;;;;;4.10;1.30;;;11.90;99.90;;;;;;5013168;28;20081;-81
2022/08/28 05:41:42;;;;;;;1.05;0.77;;;12.00;99.90;;;;;;5011529;28;20045;-80
2022/08/28 05:44:11;;;;;;;1.65;0.80;;;12.10;99.90;;;;;;5015714;28;20553;-80
2022/08/28 05:46:39;;;;;;;1.52;0.95;;;12.20;99.90;;;;;;4998792;28;20125;-80
2022/08/28 05:49:06;;;;;;;2.20;0.85;;;12.30;99.90;;;;;;4997869;28;20125;-80
2022/08/28 05:51:34;;;;;;;5.75;1.10;;;12.50;99.90;;;;;;4999550;28;20045;-80
2022/08/28 05:54:00;;;;;;;3.85;1.08;;;12.80;99.90;;;;;;4997782;28;20100;-80
2022/08/28 05:56:29;;;;;;;3.25;0.90;;;13.00;99.90;;;;;;5013514;28;20040;-80
2022/08/28 05:58:59;;;;;;;4.65;1.00;;;13.20;99.90;;;;;;5015072;28;20146;-81
2022/08/28 06:01:28;;;;;;;5.30;1.70;;;13.40;99.90;;;;;;5012192;28;20141;-81
2022/08/28 06:04:03;;;;;;;1.70;0.75;;;13.50;99.90;;;;;;5010863;28;20053;-81
2022/08/28 06:06:33;;;;;;;2.83;1.10;;;13.70;99.90;;;;;;5015416;28;20129;-80
2022/08/28 06:09:05;;;;;;;4.38;0.90;;;13.90;99.90;;;;;;5013386;28;20472;-80
2022/08/28 06:11:31;;;;;;;2.33;1.33;;;14.20;99.90;;;;;;5010625;28;20366;-81
2022/08/28 06:13:59;;;;;;;2.72;0.85;;;14.40;99.90;;;;;;5012742;28;20056;-81
2022/08/28 06:16:25;;;;;;;1.40;0.80;;;14.60;99.90;;;;;;5013852;28;20096;-81
2022/08/28 06:18:51;;;;;;;3.13;0.82;;;14.70;99.90;;;;;;5011208;28;20499;-80
2022/08/28 06:21:16;;;;;;;1.75;0.70;;;14.90;99.90;;;;;;5013295;28;20125;-80
2022/08/28 06:23:43;;;;;;;1.63;0.90;;;15.00;99.90;;;;;;4996075;28;20083;-80
2022/08/28 06:26:10;;;;;;;1.60;0.70;;;15.30;99.90;;;;;;4997455;28;20042;-80
2022/08/28 06:28:35;;;;;;;4.03;0.80;;;16.30;99.90;;;;;;5009994;28;20111;-80
2022/08/28 06:31:03;;;;;;;4.93;1.00;;;18.20;99.90;;;;;;4997841;28;20520;-81
2022/08/28 06:33:30;;;;;;;2.78;1.20;;;19.90;99.90;;;;;;5013030;28;20120;-81
2022/08/28 06:35:56;;;;;;;1.35;0.77;;;21.60;99.90;;;;;;5012548;28;20073;-81
2022/08/28 06:38:24;;;;;;;1.65;0.68;;;23.10;99.90;;;;;;4981617;28;20121;-81
2022/08/28 06:40:52;;;;;;;1.75;0.73;;;24.10;99.20;;;;;;4992992;28;20038;-81
2022/08/28 06:43:21;;;;;;;3.08;0.80;;;25.20;95.30;;;;;;5011298;28;20518;-82
2022/08/28 06:45:49;;;;;;;2.55;1.13;;;25.80;93.50;;;;;;5012122;28;20034;-82
2022/08/28 06:48:18;;;;;;;1.50;0.80;;;26.70;92.40;;;;;;5012062;28;20042;-80
2022/08/28 06:50:48;;;;;;;1.13;0.70;;;27.20;91.10;;;;;;5010274;28;20030;-81
2022/08/28 06:53:17;;;;;;;2.45;0.90;;;27.80;90.50;;;;;;4997096;28;20042;-81
2022/08/28 06:55:42;;;;;;;1.77;0.77;;;28.30;87.40;;;;;;5009630;28;20403;-81
2022/08/28 06:58:10;;;;;;;1.92;0.98;;;29.00;86.80;;;;;;5011582;28;20050;-81
2022/08/28 07:00:36;;;;;;;2.15;0.85;;;29.10;87.20;;;;;;5009986;28;20112;-80
2022/08/28 07:03:06;;;;;;;1.55;0.52;;;29.40;86.40;;;;;;4997182;28;20061;-81
2022/08/28 07:05:32;;;;;;;2.70;1.45;;;29.40;82.00;;;;;;5013806;28;20121;-81
2022/08/28 07:07:58;;;;;;;2.80;0.63;;;29.60;81.40;;;;;;5009679;28;20042;-81
2022/08/28 07:10:26;;;;;;;1.40;0.57;;;29.70;81.20;;;;;;4996680;28;20141;-81
2022/08/28 07:12:52;;;;;;;4.93;1.40;;;30.00;81.00;;;;;;4977606;28;20373;-81
2022/08/28 07:15:18;;;;;;;2.70;0.70;;;30.30;80.90;;;;;;5011330;28;20057;-81
2022/08/28 07:17:44;;;;;;;3.13;0.90;;;30.80;77.80;;;;;;4961539;28;20481;-81
2022/08/28 07:20:10;;;;;;;2.55;0.80;;;31.30;79.00;;;;;;5011797;28;20045;-81
2022/08/28 07:22:39;;;;;;;0.95;0.50;;;31.50;77.30;;;;;;5011529;28;20034;-81
2022/08/28 07:25:06;;;;;;;1.52;0.65;;;32.00;76.20;;;;;;4995544;28;20042;-81
2022/08/28 07:27:32;;;;;;;1.85;0.88;;;31.60;75.10;;;;;;4994911;28;20040;-81
2022/08/28 07:29:58;;;;;;;1.58;0.90;;;32.00;76.80;;;;;;4997096;28;20395;-81
2022/08/28 07:32:24;;;;;;;2.63;0.65;;;32.20;75.10;;;;;;5010839;28;20523;-81
2022/08/28 07:34:49;;;;;;;1.50;0.88;;;32.20;74.30;;;;;;5011908;28;20038;-82
2022/08/28 07:37:16;;;;;;;1.85;0.95;;;31.60;72.60;;;;;;4995456;28;20066;-82
2022/08/28 07:39:43;;;;;;;1.40;0.80;;;30.80;74.30;;;;;;4995334;28;20049;-83
2022/08/28 07:42:09;;;;;;;4.25;1.08;;;29.70;74.30;;;;;;4996807;28;20087;-82
2022/08/28 07:44:49;;;;;;;1.10;0.68;;;28.00;75.70;;;;;;4979920;28;20460;-82
2022/08/28 07:47:17;;;;;;;1.10;0.80;;;26.70;78.30;;;;;;5011078;28;20046;-82
2022/08/28 07:49:43;;;;;;;3.53;1.20;;;25.50;81.20;;;;;;5010873;28;20045;-82
2022/08/28 07:52:10;;;;;;;3.47;1.10;;;24.50;83.80;;;;;;5013325;28;20161;-82
2022/08/28 07:54:39;;;;;;;3.50;1.05;;;24.60;86.40;;;;;;5012306;28;20046;-80
2022/08/28 07:57:07;;;;;;;1.90;0.65;;;25.60;84.70;;;;;;5013200;28;20144;-80
2022/08/28 07:59:33;;;;;;;1.52;0.73;;;26.90;81.40;;;;;;5012221;28;20049;-80
2022/08/28 08:01:58;;;;;;;2.45;0.75;;;28.20;79.00;;;;;;5013068;28;20045;-80
2022/08/28 08:04:24;;;;;;;4.10;1.25;;;29.00;76.70;;;;;;5012734;28;20056;-80
2022/08/28 08:06:54;;;;;;;1.50;0.80;;;29.60;76.00;;;;;;5017067;28;20034;-80
2022/08/28 08:09:20;;;;;;;3.42;1.48;;;29.90;74.90;;;;;;4994727;28;20543;-80
2022/08/28 08:11:47;;;;;;;3.30;1.23;;;30.70;74.00;;;;;;4995064;28;20034;-81
2022/08/28 08:14:14;;;;;;;2.78;0.90;;;30.70;74.70;;;;;;5011080;28;20045;-82
2022/08/28 08:16:42;;;;;;;1.75;0.98;;;30.30;72.10;;;;;;5011378;28;20112;-81
2022/08/28 08:19:12;;;;;;;1.48;0.93;;;29.00;73.30;;;;;;5009647;28;20039;-81
2022/08/28 08:21:39;;;;;;;1.95;1.00;;;27.70;75.60;;;;;;5009395;28;20566;-81
2022/08/28 08:24:05;;;;;;;2.03;1.30;;;26.40;78.10;;;;;;4979576;28;20384;-81
2022/08/28 08:26:31;;;;;;;2.10;1.02;;;25.40;79.90;;;;;;5010933;28;20077;-81
2022/08/28 08:28:58;;;;;;;2.67;1.10;;;24.60;82.10;;;;;;4995537;28;20037;-81
2022/08/28 08:31:31;;;;;;;3.08;0.90;;;24.50;84.00;;;;;;4994525;28;20084;-81
2022/08/28 08:34:03;;;;;;;4.47;1.30;;;24.80;84.00;;;;;;5009601;28;20042;-81
2022/08/28 08:36:31;;;;;;;2.45;1.00;;;25.00;83.20;;;;;;5005344;28;20058;-81
2022/08/28 08:38:58;;;;;;;1.65;0.70;;;24.40;84.20;;;;;;5027479;28;20104;-81
2022/08/28 08:41:49;;;;;;;1.77;0.82;;;23.70;85.70;;;;;;5011898;28;20133;-81
2022/08/28 08:44:35;;;;;;;3.72;1.40;;;23.10;87.20;;;;;;5010139;28;20472;-80
2022/08/28 08:47:21;;;;;;;0.80;0.60;;;22.90;90.10;;;;;;4990744;28;20129;-80
2022/08/28 08:49:54;;;;;;;3.83;0.95;;;24.20;89.20;;;;;;4993262;28;20042;-80
2022/08/28 08:52:35;;;;;;;3.83;1.17;;;26.20;84.50;;;;;;5005290;28;20373;-80
2022/08/28 08:55:13;;;;;;;5.13;0.98;;;28.10;80.90;;;;;;5010054;28;20033;-80
2022/08/28 08:57:39;;;;;;;4.75;1.08;;;29.30;77.10;;;;;;4993420;28;20476;-80
2022/08/28 09:00:08;;;;;;;2.65;1.00;;;28.80;76.60;;;;;;4979384;28;20045;-81
2022/08/28 09:02:44;;;;;;;2.70;1.25;;;27.90;77.70;;;;;;4993163;28;20046;-81
2022/08/28 09:05:14;;;;;;;2.47;0.95;;;26.70;78.90;;;;;;5010168;28;20080;-81
2022/08/28 09:07:56;;;;;;;2.50;1.02;;;25.70;80.60;;;;;;5007428;28;20038;-81
2022/08/28 09:10:26;;;;;;;2.67;0.93;;;24.80;81.20;;;;;;5009834;28;20121;-81
2022/08/28 09:13:00;;;;;;;3.95;0.98;;;23.90;83.80;;;;;;5011505;28;20046;-81
2022/08/28 09:15:32;;;;;;;1.88;0.98;;;24.10;87.90;;;;;;5009759;28;20042;-81
2022/08/28 09:18:12;;;;;;;3.78;0.95;;;25.70;82.50;;;;;;5011516;28;20120;-82
2022/08/28 09:20:38;;;;;;;4.03;1.38;;;26.10;81.10;;;;;;5011012;28;20053;-82
2022/08/28 09:23:04;;;;;;;1.17;0.77;;;25.90;82.90;;;;;;5010642;28;20480;-82
2022/08/28 09:25:50;;;;;;;4.50;1.05;;;26.00;82.20;;;;;;5006946;28;20041;-82
2022/08/28 09:28:27;;;;;;;1.50;1.08;;;25.60;82.50;;;;;;4993700;28;20096;-82
2022/08/28 09:31:03;;;;;;;3.35;1.30;;;24.90;83.00;;;;;;5009706;28;20065;-82
2022/08/28 09:33:38;;;;;;;3.40;0.95;;;24.00;84.30;;;;;;5011111;28;20061;-80
2022/08/28 09:36:26;;;;;;;2.80;1.20;;;23.40;86.50;;;;;;5010922;28;20058;-80
2022/08/28 09:39:17;;;;;;;3.20;1.10;;;22.90;87.30;;;;;;5021580;28;20040;-80
2022/08/28 09:45:06;;;;;;;3.88;0.90;;;24.50;84.40;;;;;;5011318;28;20062;-80
2022/08/28 09:47:36;;;;;;;2.13;1.00;;;24.60;84.20;;;;;;4992446;28;20049;-80
2022/08/28 09:50:23;;;;;;;6.75;1.10;;;25.60;82.90;;;;;;5011611;28;20500;-81
2022/08/28 09:52:50;;;;;;;2.90;1.10;;;26.60;80.40;;;;;;5006643;28;20088;-82
2022/08/28 09:55:28;;;;;;;1.52;0.82;;;26.40;78.80;;;;;;4993149;28;20044;-81
2022/08/28 09:57:54;;;;;;;2.72;0.90;;;25.80;80.20;;;;;;5010961;28;20050;-82
2022/08/28 10:00:21;;;;;;;1.58;1.00;;;25.00;80.60;;;;;;5009855;28;20092;-81
2022/08/28 10:03:02;;;;;;;2.85;0.95;;;24.30;82.60;;;;;;4994937;28;20462;-81
2022/08/28 10:05:46;;;;;;;3.30;1.08;;;23.90;83.50;;;;;;5011436;28;20038;-81
2022/08/28 10:08:37;;;;;;;2.60;0.80;;;24.70;83.80;;;;;;5004979;28;20034;-81
2022/08/28 10:11:30;;;;;;;1.55;0.90;;;25.30;81.20;;;;;;5006538;28;20069;-82
2022/08/28 10:15:00;;;;;;;1.55;1.20;;;25.20;82.50;;;;;;5007370;28;20042;-82
2022/08/28 10:17:38;;;;;;;1.48;0.85;;;26.50;79.80;;;;;;4989351;28;20096;-81
2022/08/28 10:20:22;;;;;;;2.45;1.20;;;28.10;77.70;;;;;;5007073;28;20038;-81
2022/08/28 10:22:58;;;;;;;3.58;0.90;;;27.50;75.70;;;;;;4993255;28;20392;-81
2022/08/28 10:25:52;;;;;;;2.15;0.98;;;26.40;76.50;;;;;;5009862;28;20034;-81
2022/08/28 10:28:33;;;;;;;2.17;1.02;;;25.30;78.50;;;;;;5005717;28;20515;-81
2022/08/28 10:31:09;;;;;;;4.35;1.20;;;25.50;82.10;;;;;;5010279;28;20061;-81
2022/08/28 10:33:49;;;;;;;3.08;1.20;;;26.90;78.10;;;;;;5011646;28;20038;-81
2022/08/28 10:36:27;;;;;;;2.15;1.00;;;28.10;77.50;;;;;;5035526;22;20061;-81
2022/08/28 10:39:25;;;;;;;1.23;0.80;;;29.50;76.30;;;;;;5016132;28;20045;-80
2022/08/28 10:41:58;;;;;;;2.88;1.05;;;29.50;73.40;;;;;;4975165;28;20056;-80
2022/08/28 10:44:35;;;;;;;3.42;1.00;;;28.40;74.80;;;;;;5026429;28;20099;-80
2022/08/28 10:47:03;;;;;;;2.40;1.10;;;27.20;76.40;;;;;;5012592;28;20042;-81
2022/08/28 10:49:35;;;;;;;4.15;1.00;;;27.20;78.20;;;;;;5030879;28;20130;-80
2022/08/28 10:52:07;;;;;;;2.50;1.27;;;28.00;76.90;;;;;;5030306;28;20760;-80
2022/08/28 10:54:42;;;;;;;2.67;0.98;;;29.00;75.50;;;;;;5031424;28;20091;-80
2022/08/28 10:57:20;;;;;;;3.58;1.13;;;28.80;73.10;;;;;;5015837;28;20483;-80
2022/08/28 10:59:49;;;;;;;2.22;0.90;;;27.80;73.50;;;;;;5012979;28;20042;-80
2022/08/28 11:02:21;;;;;;;1.73;0.80;;;27.00;77.00;;;;;;5032708;28;20424;-80
2022/08/28 11:04:47;;;;;;;3.38;1.15;;;27.30;75.40;;;;;;5012127;28;20124;-80
2022/08/28 11:07:31;;;;;;;1.55;0.80;;;28.40;75.70;;;;;;5030744;28;20056;-81
2022/08/28 11:10:34;;;;;;;2.35;1.00;;;29.30;73.70;;;;;;5030722;28;20040;-81
2022/08/28 11:13:01;;;;;;;2.15;1.00;;;29.30;72.50;;;;;;5015595;28;20083;-81
2022/08/28 11:15:27;;;;;;;2.88;1.23;;;28.30;73.30;;;;;;5033193;28;20045;-83
2022/08/28 11:17:55;;;;;;;1.95;0.85;;;28.00;75.20;;;;;;5016910;28;20064;-84
2022/08/28 11:20:28;;;;;;;2.13;0.93;;;28.40;73.70;;;;;;5032165;28;20735;-84
2022/08/28 11:23:09;;;;;;;1.42;0.85;;;29.20;73.60;;;;;;5009050;28;20037;-84
2022/08/28 11:25:54;;;;;;;4.25;1.08;;;29.80;72.90;;;;;;5024980;28;20052;-83
2022/08/28 11:28:22;;;;;;;2.83;0.95;;;29.70;73.40;;;;;;5032165;28;20045;-84
2022/08/28 11:30:57;;;;;;;1.60;0.90;;;28.80;72.70;;;;;;5013287;28;20041;-84
2022/08/28 11:33:45;;;;;;;4.87;1.17;;;27.70;74.40;;;;;;5028906;28;20404;-84
2022/08/28 11:36:28;;;;;;;3.13;1.05;;;26.90;76.70;;;;;;5026992;28;20065;-84
2022/08/28 11:38:54;;;;;;;2.83;1.20;;;26.30;78.20;;;;;;5029015;28;20076;-84
2022/08/28 11:41:27;;;;;;;3.33;1.60;;;25.40;78.60;;;;;;5013647;28;20476;-84
2022/08/28 11:44:08;;;;;;;1.83;1.05;;;25.20;81.90;;;;;;5029079;28;20072;-84
2022/08/28 11:47:14;;;;;;;2.67;0.85;;;25.70;80.80;;;;;;5032489;28;20048;-84
2022/08/28 11:49:42;;;;;;;2.63;0.70;;;26.30;80.20;;;;;;5030763;28;20029;-81
2022/08/28 11:52:38;;;;;;;2.33;1.08;;;27.30;79.00;;;;;;4996203;28;20042;-81
2022/08/28 11:55:28;;;;;;;2.95;1.10;;;28.00;76.90;;;;;;5028160;28;20041;-81
2022/08/28 11:58:58;;;;;;;3.92;1.10;;;28.00;75.80;;;;;;5031166;28;20041;-81
2022/08/28 12:01:36;;;;;;;5.68;0.95;;;28.10;76.90;;;;;;4886388;29;20059;-81
2022/08/28 12:04:03;;;;;;;1.92;1.10;;;28.60;77.20;;;;;;5028014;28;20044;-83
2022/08/28 12:06:45;;;;;;;1.23;0.73;;;29.00;74.80;;;;;;5015716;28;20045;-84
2022/08/28 12:09:44;;;;;;;1.50;0.63;;;29.40;76.20;;;;;;5026482;28;20121;-84
2022/08/28 12:12:19;;;;;;;1.45;0.90;;;29.60;74.80;;;;;;5010824;28;20049;-84
2022/08/28 12:14:45;;;;;;;2.65;1.17;;;29.60;72.50;;;;;;5014040;28;20033;-83
2022/08/28 12:17:13;;;;;;;1.25;0.80;;;29.00;74.30;;;;;;5031047;28;20610;-84
2022/08/28 12:19:55;;;;;;;1.30;0.70;;;28.50;71.60;;;;;;5009946;28;20353;-84
2022/08/28 12:22:25;;;;;;;1.65;0.93;;;28.30;73.20;;;;;;5032812;28;20077;-84
2022/08/28 12:24:58;;;;;;;2.80;0.93;;;28.40;72.20;;;;;;5015464;28;20051;-84
2022/08/28 12:27:25;;;;;;;1.42;0.77;;;28.10;74.10;;;;;;5029889;28;20116;-84
2022/08/28 12:30:01;;;;;;;0.88;0.65;;;28.00;73.80;;;;;;5026399;28;20030;-84
2022/08/28 12:32:38;;;;;;;2.20;0.88;;;27.70;74.00;;;;;;5031385;28;20076;-84
2022/08/28 12:35:18;;;;;;;1.30;0.90;;;27.20;73.60;;;;;;5032024;28;20099;-84
2022/08/28 12:37:52;;;;;;;2.17;0.93;;;26.90;74.50;;;;;;5031019;28;20058;-81
2022/08/28 12:40:24;;;;;;;1.70;0.57;;;27.00;75.90;;;;;;5016641;28;20047;-81
2022/08/28 12:43:03;;;;;;;1.88;0.80;;;26.90;75.90;;;;;;5032920;28;20072;-81
2022/08/28 12:45:28;;;;;;;1.90;0.88;;;26.70;74.80;;;;;;5032469;28;20041;-81
2022/08/28 12:47:59;;;;;;;2.92;1.15;;;26.60;76.00;;;;;;5031315;28;20037;-81
2022/08/28 12:50:38;;;;;;;1.42;0.70;;;26.60;77.00;;;;;;5016207;28;20392;-81
2022/08/28 12:53:10;;;;;;;1.30;0.60;;;26.80;77.00;;;;;;5023488;28;20483;-81
2022/08/28 12:55:38;;;;;;;1.88;0.88;;;26.50;78.00;;;;;;5014159;28;20033;-81
2022/08/28 12:58:09;;;;;;;0.70;0.45;;;26.40;78.10;;;;;;5030360;28;20072;-81
2022/08/28 13:00:35;;;;;;;2.67;0.70;;;26.60;79.70;;;;;;5030359;28;20037;-81
2022/08/28 13:03:01;;;;;;;4.00;1.33;;;26.70;78.70;;;;;;4995744;28;20033;-81
2022/08/28 13:05:33;;;;;;;2.65;0.82;;;26.40;78.40;;;;;;5031643;28;20080;-81
2022/08/28 13:08:04;;;;;;;2.13;0.80;;;26.30;78.00;;;;;;5030281;28;20103;-81
2022/08/28 13:10:35;;;;;;;1.02;0.50;;;26.00;78.40;;;;;;5031371;28;20519;-83
2022/08/28 13:13:09;;;;;;;1.45;0.88;;;25.60;78.80;;;;;;5031984;28;20037;-84
2022/08/28 13:15:53;;;;;;;1.20;0.80;;;25.40;79.70;;;;;;5031723;28;20487;-84